sensor_id;sensor_type;location;lat;lon;timestamp;P1;durP1;ratioP1;P2;durP2;ratioP2
23543;SDS011;11950;51.230;4.012;2024-01-30T00:00:04;9.35;;;5.15;;
23543;SDS011;11950;51.230;4.012;2024-01-30T00:02:31;7.22;;;5.13;;
23543;SDS011;11950;51.230;4.012;2024-01-30T00:04:58;7.85;;;5.57;;
23543;SDS011;11950;51.230;4.012;2024-01-30T00:07:24;6.95;;;5.40;;
23543;SDS011;11950;51.230;4.012;2024-01-30T00:09:50;10.32;;;5.55;;
23543;SDS011;11950;51.230;4.012;2024-01-30T00:12:17;11.23;;;6.28;;
23543;SDS011;11950;51.230;4.012;2024-01-30T00:14:43;10.77;;;5.45;;
23543;SDS011;11950;51.230;4.012;2024-01-30T00:17:09;6.95;;;5.68;;
23543;SDS011;11950;51.230;4.012;2024-01-30T00:19:35;9.43;;;5.47;;
23543;SDS011;11950;51.230;4.012;2024-01-30T00:22:02;8.02;;;5.50;;
23543;SDS011;11950;51.230;4.012;2024-01-30T00:24:29;7.75;;;5.15;;
23543;SDS011;11950;51.230;4.012;2024-01-30T00:26:55;8.05;;;5.22;;
23543;SDS011;11950;51.230;4.012;2024-01-30T00:29:21;8.48;;;5.32;;
23543;SDS011;11950;51.230;4.012;2024-01-30T00:31:48;6.55;;;5.32;;
23543;SDS011;11950;51.230;4.012;2024-01-30T00:34:15;9.52;;;5.75;;
23543;SDS011;11950;51.230;4.012;2024-01-30T00:36:41;9.00;;;5.63;;
23543;SDS011;11950;51.230;4.012;2024-01-30T00:39:07;10.77;;;6.32;;
23543;SDS011;11950;51.230;4.012;2024-01-30T00:41:35;9.85;;;5.75;;
23543;SDS011;11950;51.230;4.012;2024-01-30T00:44:01;7.72;;;5.70;;
23543;SDS011;11950;51.230;4.012;2024-01-30T00:46:27;11.73;;;5.72;;
23543;SDS011;11950;51.230;4.012;2024-01-30T00:48:54;8.30;;;5.20;;
23543;SDS011;11950;51.230;4.012;2024-01-30T00:51:20;8.90;;;5.47;;
23543;SDS011;11950;51.230;4.012;2024-01-30T00:53:46;9.65;;;5.68;;
23543;SDS011;11950;51.230;4.012;2024-01-30T00:56:13;8.77;;;5.82;;
23543;SDS011;11950;51.230;4.012;2024-01-30T00:58:39;7.78;;;5.60;;
23543;SDS011;11950;51.230;4.012;2024-01-30T01:01:05;8.50;;;5.43;;
23543;SDS011;11950;51.230;4.012;2024-01-30T01:03:33;7.30;;;5.13;;
23543;SDS011;11950;51.230;4.012;2024-01-30T01:05:59;7.32;;;5.03;;
23543;SDS011;11950;51.230;4.012;2024-01-30T01:08:25;7.50;;;5.47;;
23543;SDS011;11950;51.230;4.012;2024-01-30T01:10:52;7.20;;;5.13;;
23543;SDS011;11950;51.230;4.012;2024-01-30T01:13:19;8.93;;;6.00;;
23543;SDS011;11950;51.230;4.012;2024-01-30T01:15:45;8.90;;;5.50;;
23543;SDS011;11950;51.230;4.012;2024-01-30T01:18:12;8.65;;;5.97;;
23543;SDS011;11950;51.230;4.012;2024-01-30T01:20:38;7.43;;;5.15;;
23543;SDS011;11950;51.230;4.012;2024-01-30T01:23:04;8.75;;;5.88;;
23543;SDS011;11950;51.230;4.012;2024-01-30T01:25:30;8.00;;;5.75;;
23543;SDS011;11950;51.230;4.012;2024-01-30T01:27:57;7.28;;;5.63;;
23543;SDS011;11950;51.230;4.012;2024-01-30T01:30:23;7.07;;;5.57;;
23543;SDS011;11950;51.230;4.012;2024-01-30T01:32:51;6.40;;;5.40;;
23543;SDS011;11950;51.230;4.012;2024-01-30T01:35:26;9.73;;;5.53;;
23543;SDS011;11950;51.230;4.012;2024-01-30T01:37:53;6.85;;;5.60;;
23543;SDS011;11950;51.230;4.012;2024-01-30T01:40:23;8.15;;;5.60;;
23543;SDS011;11950;51.230;4.012;2024-01-30T01:42:50;9.15;;;6.07;;
23543;SDS011;11950;51.230;4.012;2024-01-30T01:45:20;7.28;;;5.80;;
23543;SDS011;11950;51.230;4.012;2024-01-30T01:47:48;8.60;;;5.68;;
23543;SDS011;11950;51.230;4.012;2024-01-30T01:50:16;6.95;;;5.75;;
23543;SDS011;11950;51.230;4.012;2024-01-30T01:52:46;9.98;;;5.43;;
23543;SDS011;11950;51.230;4.012;2024-01-30T01:55:14;8.40;;;5.60;;
23543;SDS011;11950;51.230;4.012;2024-01-30T01:57:41;7.80;;;6.10;;
23543;SDS011;11950;51.230;4.012;2024-01-30T02:00:08;7.70;;;5.75;;
23543;SDS011;11950;51.230;4.012;2024-01-30T02:02:36;8.25;;;5.88;;
23543;SDS011;11950;51.230;4.012;2024-01-30T02:05:04;7.35;;;5.53;;
23543;SDS011;11950;51.230;4.012;2024-01-30T02:07:31;8.13;;;5.53;;
23543;SDS011;11950;51.230;4.012;2024-01-30T02:09:57;7.28;;;5.65;;
23543;SDS011;11950;51.230;4.012;2024-01-30T02:12:24;12.30;;;6.25;;
23543;SDS011;11950;51.230;4.012;2024-01-30T02:14:50;6.72;;;5.13;;
23543;SDS011;11950;51.230;4.012;2024-01-30T02:17:16;7.45;;;5.78;;
23543;SDS011;11950;51.230;4.012;2024-01-30T02:19:43;8.68;;;5.60;;
23543;SDS011;11950;51.230;4.012;2024-01-30T02:22:09;8.65;;;5.75;;
23543;SDS011;11950;51.230;4.012;2024-01-30T02:24:36;9.88;;;5.82;;
23543;SDS011;11950;51.230;4.012;2024-01-30T02:27:02;6.93;;;5.45;;
23543;SDS011;11950;51.230;4.012;2024-01-30T02:29:28;9.55;;;5.88;;
23543;SDS011;11950;51.230;4.012;2024-01-30T02:31:55;8.10;;;5.18;;
23543;SDS011;11950;51.230;4.012;2024-01-30T02:34:21;8.93;;;5.63;;
23543;SDS011;11950;51.230;4.012;2024-01-30T02:36:47;6.97;;;5.28;;
23543;SDS011;11950;51.230;4.012;2024-01-30T02:39:13;7.43;;;5.05;;
23543;SDS011;11950;51.230;4.012;2024-01-30T02:41:40;7.15;;;5.53;;
23543;SDS011;11950;51.230;4.012;2024-01-30T02:44:06;12.55;;;5.88;;
23543;SDS011;11950;51.230;4.012;2024-01-30T02:46:32;7.82;;;5.72;;
23543;SDS011;11950;51.230;4.012;2024-01-30T02:48:59;10.35;;;6.30;;
23543;SDS011;11950;51.230;4.012;2024-01-30T02:51:25;6.03;;;5.32;;
23543;SDS011;11950;51.230;4.012;2024-01-30T02:53:51;7.70;;;5.43;;
23543;SDS011;11950;51.230;4.012;2024-01-30T02:56:17;8.07;;;5.20;;
23543;SDS011;11950;51.230;4.012;2024-01-30T02:58:44;7.65;;;5.07;;
23543;SDS011;11950;51.230;4.012;2024-01-30T03:01:10;9.15;;;5.45;;
23543;SDS011;11950;51.230;4.012;2024-01-30T03:03:36;9.15;;;5.75;;
23543;SDS011;11950;51.230;4.012;2024-01-30T03:06:02;8.60;;;5.72;;
23543;SDS011;11950;51.230;4.012;2024-01-30T03:08:29;11.50;;;6.40;;
23543;SDS011;11950;51.230;4.012;2024-01-30T03:10:55;8.35;;;5.28;;
23543;SDS011;11950;51.230;4.012;2024-01-30T03:13:21;8.63;;;5.22;;
23543;SDS011;11950;51.230;4.012;2024-01-30T03:15:50;7.50;;;5.47;;
23543;SDS011;11950;51.230;4.012;2024-01-30T03:18:16;9.00;;;5.38;;
23543;SDS011;11950;51.230;4.012;2024-01-30T03:20:43;9.02;;;6.20;;
23543;SDS011;11950;51.230;4.012;2024-01-30T03:23:10;8.07;;;5.18;;
23543;SDS011;11950;51.230;4.012;2024-01-30T03:25:36;7.80;;;5.68;;
23543;SDS011;11950;51.230;4.012;2024-01-30T03:28:02;9.80;;;5.55;;
23543;SDS011;11950;51.230;4.012;2024-01-30T03:30:29;8.45;;;5.85;;
23543;SDS011;11950;51.230;4.012;2024-01-30T03:32:55;8.40;;;5.88;;
23543;SDS011;11950;51.230;4.012;2024-01-30T03:35:21;9.05;;;5.90;;
23543;SDS011;11950;51.230;4.012;2024-01-30T03:37:48;9.80;;;5.70;;
23543;SDS011;11950;51.230;4.012;2024-01-30T03:40:14;9.00;;;5.82;;
23543;SDS011;11950;51.230;4.012;2024-01-30T03:42:41;9.05;;;6.05;;
23543;SDS011;11950;51.230;4.012;2024-01-30T03:45:07;8.60;;;5.43;;
23543;SDS011;11950;51.230;4.012;2024-01-30T03:47:34;7.80;;;6.13;;
23543;SDS011;11950;51.230;4.012;2024-01-30T03:50:00;6.97;;;5.40;;
23543;SDS011;11950;51.230;4.012;2024-01-30T03:52:26;8.93;;;5.93;;
23543;SDS011;11950;51.230;4.012;2024-01-30T03:54:52;9.80;;;6.20;;
23543;SDS011;11950;51.230;4.012;2024-01-30T03:57:19;7.13;;;5.15;;
23543;SDS011;11950;51.230;4.012;2024-01-30T03:59:45;11.93;;;5.85;;
23543;SDS011;11950;51.230;4.012;2024-01-30T04:02:12;8.02;;;5.53;;
23543;SDS011;11950;51.230;4.012;2024-01-30T04:04:38;6.80;;;5.00;;
23543;SDS011;11950;51.230;4.012;2024-01-30T04:07:04;7.80;;;5.53;;
23543;SDS011;11950;51.230;4.012;2024-01-30T04:09:30;8.63;;;5.50;;
23543;SDS011;11950;51.230;4.012;2024-01-30T04:11:58;9.88;;;6.00;;
23543;SDS011;11950;51.230;4.012;2024-01-30T04:14:24;5.95;;;4.88;;
23543;SDS011;11950;51.230;4.012;2024-01-30T04:16:50;10.20;;;5.75;;
23543;SDS011;11950;51.230;4.012;2024-01-30T04:19:16;9.20;;;5.18;;
23543;SDS011;11950;51.230;4.012;2024-01-30T04:21:43;8.13;;;6.07;;
23543;SDS011;11950;51.230;4.012;2024-01-30T04:24:09;10.70;;;6.40;;
23543;SDS011;11950;51.230;4.012;2024-01-30T04:26:35;11.82;;;6.03;;
23543;SDS011;11950;51.230;4.012;2024-01-30T04:29:02;8.73;;;5.80;;
23543;SDS011;11950;51.230;4.012;2024-01-30T04:31:28;8.05;;;5.70;;
23543;SDS011;11950;51.230;4.012;2024-01-30T04:33:54;7.38;;;5.05;;
23543;SDS011;11950;51.230;4.012;2024-01-30T04:36:21;9.88;;;5.68;;
23543;SDS011;11950;51.230;4.012;2024-01-30T04:38:47;8.00;;;5.60;;
23543;SDS011;11950;51.230;4.012;2024-01-30T04:41:13;8.27;;;5.22;;
23543;SDS011;11950;51.230;4.012;2024-01-30T04:43:39;8.45;;;5.63;;
23543;SDS011;11950;51.230;4.012;2024-01-30T04:46:06;9.32;;;6.05;;
23543;SDS011;11950;51.230;4.012;2024-01-30T04:48:32;8.25;;;6.18;;
23543;SDS011;11950;51.230;4.012;2024-01-30T04:50:58;7.47;;;5.82;;
23543;SDS011;11950;51.230;4.012;2024-01-30T04:53:27;11.98;;;6.78;;
23543;SDS011;11950;51.230;4.012;2024-01-30T04:55:53;8.93;;;5.25;;
23543;SDS011;11950;51.230;4.012;2024-01-30T04:58:20;10.27;;;5.50;;
23543;SDS011;11950;51.230;4.012;2024-01-30T05:00:46;6.97;;;5.50;;
23543;SDS011;11950;51.230;4.012;2024-01-30T05:03:18;7.38;;;5.28;;
23543;SDS011;11950;51.230;4.012;2024-01-30T05:05:45;8.45;;;5.57;;
23543;SDS011;11950;51.230;4.012;2024-01-30T05:08:11;8.38;;;6.35;;
23543;SDS011;11950;51.230;4.012;2024-01-30T05:10:37;9.75;;;6.18;;
23543;SDS011;11950;51.230;4.012;2024-01-30T05:13:04;7.28;;;5.65;;
23543;SDS011;11950;51.230;4.012;2024-01-30T05:15:30;11.90;;;6.20;;
23543;SDS011;11950;51.230;4.012;2024-01-30T05:17:56;9.38;;;5.55;;
23543;SDS011;11950;51.230;4.012;2024-01-30T05:20:22;10.73;;;6.10;;
23543;SDS011;11950;51.230;4.012;2024-01-30T05:22:49;7.25;;;5.43;;
23543;SDS011;11950;51.230;4.012;2024-01-30T05:25:15;9.85;;;5.78;;
23543;SDS011;11950;51.230;4.012;2024-01-30T05:27:41;9.48;;;5.90;;
23543;SDS011;11950;51.230;4.012;2024-01-30T05:30:07;8.38;;;5.50;;
23543;SDS011;11950;51.230;4.012;2024-01-30T05:32:34;7.18;;;5.65;;
23543;SDS011;11950;51.230;4.012;2024-01-30T05:35:01;8.05;;;4.97;;
23543;SDS011;11950;51.230;4.012;2024-01-30T05:37:27;11.32;;;6.45;;
23543;SDS011;11950;51.230;4.012;2024-01-30T05:39:53;9.32;;;5.65;;
23543;SDS011;11950;51.230;4.012;2024-01-30T05:42:20;9.57;;;5.88;;
23543;SDS011;11950;51.230;4.012;2024-01-30T05:44:46;7.32;;;5.28;;
23543;SDS011;11950;51.230;4.012;2024-01-30T05:47:12;9.45;;;5.50;;
23543;SDS011;11950;51.230;4.012;2024-01-30T05:49:38;9.60;;;5.80;;
23543;SDS011;11950;51.230;4.012;2024-01-30T05:52:05;7.90;;;5.65;;
23543;SDS011;11950;51.230;4.012;2024-01-30T05:54:31;7.10;;;5.32;;
23543;SDS011;11950;51.230;4.012;2024-01-30T05:56:58;7.03;;;5.22;;
23543;SDS011;11950;51.230;4.012;2024-01-30T05:59:24;9.48;;;4.97;;
23543;SDS011;11950;51.230;4.012;2024-01-30T06:01:50;8.48;;;5.53;;
23543;SDS011;11950;51.230;4.012;2024-01-30T06:04:16;7.95;;;5.53;;
23543;SDS011;11950;51.230;4.012;2024-01-30T06:06:43;11.00;;;6.10;;
23543;SDS011;11950;51.230;4.012;2024-01-30T06:09:09;7.97;;;5.22;;
23543;SDS011;11950;51.230;4.012;2024-01-30T06:11:35;8.02;;;5.28;;
23543;SDS011;11950;51.230;4.012;2024-01-30T06:14:01;8.85;;;5.93;;
23543;SDS011;11950;51.230;4.012;2024-01-30T06:16:28;9.95;;;6.20;;
23543;SDS011;11950;51.230;4.012;2024-01-30T06:18:55;8.68;;;6.15;;
23543;SDS011;11950;51.230;4.012;2024-01-30T06:21:24;8.45;;;5.43;;
23543;SDS011;11950;51.230;4.012;2024-01-30T06:23:50;9.98;;;6.10;;
23543;SDS011;11950;51.230;4.012;2024-01-30T06:26:17;9.48;;;6.15;;
23543;SDS011;11950;51.230;4.012;2024-01-30T06:28:43;9.93;;;6.00;;
23543;SDS011;11950;51.230;4.012;2024-01-30T06:31:10;7.88;;;5.63;;
23543;SDS011;11950;51.230;4.012;2024-01-30T06:33:36;9.75;;;6.18;;
23543;SDS011;11950;51.230;4.012;2024-01-30T06:36:02;7.40;;;5.47;;
23543;SDS011;11950;51.230;4.012;2024-01-30T06:38:29;8.98;;;5.70;;
23543;SDS011;11950;51.230;4.012;2024-01-30T06:40:55;7.72;;;5.28;;
23543;SDS011;11950;51.230;4.012;2024-01-30T06:43:22;10.15;;;5.82;;
23543;SDS011;11950;51.230;4.012;2024-01-30T06:45:48;8.95;;;5.18;;
23543;SDS011;11950;51.230;4.012;2024-01-30T06:48:14;7.88;;;6.20;;
23543;SDS011;11950;51.230;4.012;2024-01-30T06:50:40;7.93;;;6.38;;
23543;SDS011;11950;51.230;4.012;2024-01-30T06:53:06;8.32;;;6.00;;
23543;SDS011;11950;51.230;4.012;2024-01-30T06:55:33;9.48;;;5.97;;
23543;SDS011;11950;51.230;4.012;2024-01-30T06:57:59;7.80;;;5.68;;
23543;SDS011;11950;51.230;4.012;2024-01-30T07:00:25;13.40;;;7.07;;
23543;SDS011;11950;51.230;4.012;2024-01-30T07:02:51;8.35;;;5.78;;
23543;SDS011;11950;51.230;4.012;2024-01-30T07:05:18;11.43;;;6.30;;
23543;SDS011;11950;51.230;4.012;2024-01-30T07:07:44;12.45;;;6.10;;
23543;SDS011;11950;51.230;4.012;2024-01-30T07:10:10;8.95;;;6.72;;
23543;SDS011;11950;51.230;4.012;2024-01-30T07:12:36;8.77;;;6.03;;
23543;SDS011;11950;51.230;4.012;2024-01-30T07:15:03;16.95;;;7.22;;
23543;SDS011;11950;51.230;4.012;2024-01-30T07:17:29;10.30;;;6.47;;
23543;SDS011;11950;51.230;4.012;2024-01-30T07:19:56;12.13;;;6.40;;
23543;SDS011;11950;51.230;4.012;2024-01-30T07:22:22;9.45;;;6.43;;
23543;SDS011;11950;51.230;4.012;2024-01-30T07:24:48;12.38;;;6.57;;
23543;SDS011;11950;51.230;4.012;2024-01-30T07:27:15;10.52;;;6.53;;
23543;SDS011;11950;51.230;4.012;2024-01-30T07:29:43;10.43;;;6.38;;
23543;SDS011;11950;51.230;4.012;2024-01-30T07:32:09;9.55;;;5.60;;
23543;SDS011;11950;51.230;4.012;2024-01-30T07:34:36;7.22;;;5.57;;
23543;SDS011;11950;51.230;4.012;2024-01-30T07:37:02;9.18;;;6.07;;
23543;SDS011;11950;51.230;4.012;2024-01-30T07:39:28;11.38;;;6.32;;
23543;SDS011;11950;51.230;4.012;2024-01-30T07:41:55;9.05;;;5.65;;
23543;SDS011;11950;51.230;4.012;2024-01-30T07:44:21;11.70;;;6.85;;
23543;SDS011;11950;51.230;4.012;2024-01-30T07:46:48;10.95;;;6.18;;
23543;SDS011;11950;51.230;4.012;2024-01-30T07:49:14;9.90;;;6.13;;
23543;SDS011;11950;51.230;4.012;2024-01-30T07:51:41;10.02;;;5.93;;
23543;SDS011;11950;51.230;4.012;2024-01-30T07:54:13;8.02;;;5.55;;
23543;SDS011;11950;51.230;4.012;2024-01-30T07:56:39;10.05;;;6.35;;
23543;SDS011;11950;51.230;4.012;2024-01-30T07:59:09;10.40;;;6.80;;
23543;SDS011;11950;51.230;4.012;2024-01-30T08:01:36;11.88;;;5.90;;
23543;SDS011;11950;51.230;4.012;2024-01-30T08:04:02;9.90;;;6.07;;
23543;SDS011;11950;51.230;4.012;2024-01-30T08:06:28;9.13;;;6.00;;
23543;SDS011;11950;51.230;4.012;2024-01-30T08:08:55;9.20;;;5.53;;
23543;SDS011;11950;51.230;4.012;2024-01-30T08:11:23;9.32;;;6.40;;
23543;SDS011;11950;51.230;4.012;2024-01-30T08:13:54;14.20;;;6.00;;
23543;SDS011;11950;51.230;4.012;2024-01-30T08:16:21;11.75;;;6.15;;
23543;SDS011;11950;51.230;4.012;2024-01-30T08:18:47;13.10;;;6.47;;
23543;SDS011;11950;51.230;4.012;2024-01-30T08:21:13;9.23;;;5.82;;
23543;SDS011;11950;51.230;4.012;2024-01-30T08:23:40;8.73;;;5.53;;
23543;SDS011;11950;51.230;4.012;2024-01-30T08:26:07;11.07;;;6.32;;
23543;SDS011;11950;51.230;4.012;2024-01-30T08:28:33;10.50;;;5.43;;
23543;SDS011;11950;51.230;4.012;2024-01-30T08:30:59;11.85;;;6.28;;
23543;SDS011;11950;51.230;4.012;2024-01-30T08:33:26;9.32;;;6.10;;
23543;SDS011;11950;51.230;4.012;2024-01-30T08:35:52;13.98;;;6.70;;
23543;SDS011;11950;51.230;4.012;2024-01-30T08:38:19;14.70;;;6.35;;
23543;SDS011;11950;51.230;4.012;2024-01-30T08:40:45;10.13;;;6.18;;
23543;SDS011;11950;51.230;4.012;2024-01-30T08:43:12;9.38;;;6.28;;
23543;SDS011;11950;51.230;4.012;2024-01-30T08:45:38;12.40;;;6.13;;
23543;SDS011;11950;51.230;4.012;2024-01-30T08:48:04;8.27;;;6.32;;
23543;SDS011;11950;51.230;4.012;2024-01-30T08:50:31;14.95;;;6.43;;
23543;SDS011;11950;51.230;4.012;2024-01-30T08:52:57;10.60;;;6.57;;
23543;SDS011;11950;51.230;4.012;2024-01-30T08:55:23;9.60;;;6.47;;
23543;SDS011;11950;51.230;4.012;2024-01-30T08:57:50;15.50;;;7.03;;
23543;SDS011;11950;51.230;4.012;2024-01-30T09:00:17;14.60;;;6.47;;
23543;SDS011;11950;51.230;4.012;2024-01-30T09:02:43;10.95;;;6.30;;
23543;SDS011;11950;51.230;4.012;2024-01-30T09:05:10;11.27;;;6.82;;
23543;SDS011;11950;51.230;4.012;2024-01-30T09:07:36;12.13;;;6.55;;
23543;SDS011;11950;51.230;4.012;2024-01-30T09:10:02;8.57;;;6.20;;
23543;SDS011;11950;51.230;4.012;2024-01-30T09:12:29;13.00;;;6.65;;
23543;SDS011;11950;51.230;4.012;2024-01-30T09:14:55;9.07;;;6.25;;
23543;SDS011;11950;51.230;4.012;2024-01-30T09:17:22;12.75;;;6.50;;
23543;SDS011;11950;51.230;4.012;2024-01-30T09:19:48;13.90;;;7.45;;
23543;SDS011;11950;51.230;4.012;2024-01-30T09:22:14;11.80;;;6.88;;
23543;SDS011;11950;51.230;4.012;2024-01-30T09:24:40;8.40;;;5.93;;
23543;SDS011;11950;51.230;4.012;2024-01-30T09:27:07;10.98;;;6.70;;
23543;SDS011;11950;51.230;4.012;2024-01-30T09:29:33;12.68;;;6.47;;
23543;SDS011;11950;51.230;4.012;2024-01-30T09:32:01;14.25;;;6.10;;
23543;SDS011;11950;51.230;4.012;2024-01-30T09:34:29;10.48;;;6.00;;
23543;SDS011;11950;51.230;4.012;2024-01-30T09:36:55;8.65;;;4.80;;
23543;SDS011;11950;51.230;4.012;2024-01-30T09:39:21;7.10;;;3.72;;
23543;SDS011;11950;51.230;4.012;2024-01-30T09:44:29;6.13;;;2.47;;
23543;SDS011;11950;51.230;4.012;2024-01-30T09:46:56;4.68;;;2.40;;
23543;SDS011;11950;51.230;4.012;2024-01-30T09:49:30;6.30;;;2.13;;
23543;SDS011;11950;51.230;4.012;2024-01-30T09:51:58;5.03;;;1.60;;
23543;SDS011;11950;51.230;4.012;2024-01-30T09:54:24;3.45;;;1.48;;
23543;SDS011;11950;51.230;4.012;2024-01-30T09:56:50;3.40;;;1.48;;
23543;SDS011;11950;51.230;4.012;2024-01-30T09:59:16;5.43;;;1.60;;
23543;SDS011;11950;51.230;4.012;2024-01-30T10:01:43;2.78;;;1.30;;
23543;SDS011;11950;51.230;4.012;2024-01-30T10:04:09;5.00;;;1.80;;
23543;SDS011;11950;51.230;4.012;2024-01-30T10:06:36;6.22;;;1.70;;
23543;SDS011;11950;51.230;4.012;2024-01-30T10:09:03;6.68;;;1.63;;
23543;SDS011;11950;51.230;4.012;2024-01-30T10:11:30;7.72;;;1.55;;
23543;SDS011;11950;51.230;4.012;2024-01-30T10:13:56;6.05;;;1.70;;
23543;SDS011;11950;51.230;4.012;2024-01-30T10:16:22;5.05;;;1.80;;
23543;SDS011;11950;51.230;4.012;2024-01-30T10:18:49;3.95;;;1.50;;
23543;SDS011;11950;51.230;4.012;2024-01-30T10:21:16;2.75;;;1.38;;
23543;SDS011;11950;51.230;4.012;2024-01-30T10:23:43;4.57;;;1.30;;
23543;SDS011;11950;51.230;4.012;2024-01-30T10:26:10;3.22;;;1.30;;
23543;SDS011;11950;51.230;4.012;2024-01-30T10:28:36;5.20;;;1.30;;
23543;SDS011;11950;51.230;4.012;2024-01-30T10:31:03;5.50;;;1.42;;
23543;SDS011;11950;51.230;4.012;2024-01-30T10:33:29;2.83;;;1.20;;
23543;SDS011;11950;51.230;4.012;2024-01-30T10:36:03;3.85;;;0.90;;
23543;SDS011;11950;51.230;4.012;2024-01-30T10:38:30;3.17;;;0.80;;
23543;SDS011;11950;51.230;4.012;2024-01-30T10:40:58;2.47;;;0.60;;
23543;SDS011;11950;51.230;4.012;2024-01-30T10:43:33;2.55;;;0.60;;
23543;SDS011;11950;51.230;4.012;2024-01-30T10:46:06;0.95;;;0.50;;
23543;SDS011;11950;51.230;4.012;2024-01-30T10:48:41;3.28;;;0.50;;
23543;SDS011;11950;51.230;4.012;2024-01-30T10:51:10;3.83;;;0.57;;
23543;SDS011;11950;51.230;4.012;2024-01-30T10:53:38;0.95;;;0.50;;
23543;SDS011;11950;51.230;4.012;2024-01-30T10:56:05;8.88;;;4.18;;
23543;SDS011;11950;51.230;4.012;2024-01-30T10:58:32;2.83;;;1.63;;
23543;SDS011;11950;51.230;4.012;2024-01-30T11:00:58;7.03;;;2.47;;
23543;SDS011;11950;51.230;4.012;2024-01-30T11:03:25;3.80;;;1.85;;
23543;SDS011;11950;51.230;4.012;2024-01-30T11:05:52;7.60;;;2.83;;
23543;SDS011;11950;51.230;4.012;2024-01-30T11:08:24;2.65;;;0.80;;
23543;SDS011;11950;51.230;4.012;2024-01-30T11:10:55;2.40;;;0.82;;
23543;SDS011;11950;51.230;4.012;2024-01-30T11:13:31;2.15;;;0.90;;
23543;SDS011;11950;51.230;4.012;2024-01-30T11:16:01;8.50;;;5.20;;
23543;SDS011;11950;51.230;4.012;2024-01-30T11:18:29;6.03;;;1.65;;
23543;SDS011;11950;51.230;4.012;2024-01-30T11:20:57;0.93;;;0.70;;
23543;SDS011;11950;51.230;4.012;2024-01-30T11:23:25;1.10;;;0.38;;
23543;SDS011;11950;51.230;4.012;2024-01-30T11:25:52;0.90;;;0.40;;
23543;SDS011;11950;51.230;4.012;2024-01-30T11:28:19;1.92;;;0.40;;
23543;SDS011;11950;51.230;4.012;2024-01-30T11:30:47;2.72;;;0.52;;
23543;SDS011;11950;51.230;4.012;2024-01-30T11:33:27;4.18;;;0.60;;
23543;SDS011;11950;51.230;4.012;2024-01-30T11:35:58;2.00;;;0.93;;
23543;SDS011;11950;51.230;4.012;2024-01-30T11:38:28;1.50;;;0.40;;
23543;SDS011;11950;51.230;4.012;2024-01-30T11:40:54;2.47;;;0.30;;
23543;SDS011;11950;51.230;4.012;2024-01-30T11:43:24;1.98;;;0.43;;
23543;SDS011;11950;51.230;4.012;2024-01-30T11:45:50;1.17;;;0.38;;
23543;SDS011;11950;51.230;4.012;2024-01-30T11:48:17;2.88;;;0.40;;
23543;SDS011;11950;51.230;4.012;2024-01-30T11:50:44;2.15;;;0.40;;
23543;SDS011;11950;51.230;4.012;2024-01-30T11:53:10;1.58;;;0.40;;
23543;SDS011;11950;51.230;4.012;2024-01-30T11:55:37;2.00;;;0.40;;
23543;SDS011;11950;51.230;4.012;2024-01-30T11:58:03;3.47;;;0.50;;
23543;SDS011;11950;51.230;4.012;2024-01-30T12:00:30;5.15;;;0.70;;
23543;SDS011;11950;51.230;4.012;2024-01-30T12:02:56;2.42;;;0.73;;
23543;SDS011;11950;51.230;4.012;2024-01-30T12:05:23;3.83;;;0.60;;
23543;SDS011;11950;51.230;4.012;2024-01-30T12:07:50;2.67;;;0.80;;
23543;SDS011;11950;51.230;4.012;2024-01-30T12:10:17;3.67;;;0.85;;
23543;SDS011;11950;51.230;4.012;2024-01-30T12:12:45;2.38;;;0.47;;
23543;SDS011;11950;51.230;4.012;2024-01-30T12:15:13;0.63;;;0.40;;
23543;SDS011;11950;51.230;4.012;2024-01-30T12:17:40;3.05;;;0.50;;
23543;SDS011;11950;51.230;4.012;2024-01-30T12:20:07;2.53;;;0.60;;
23543;SDS011;11950;51.230;4.012;2024-01-30T12:22:36;1.80;;;0.60;;
23543;SDS011;11950;51.230;4.012;2024-01-30T12:25:15;1.65;;;0.60;;
23543;SDS011;11950;51.230;4.012;2024-01-30T12:27:44;3.30;;;0.50;;
23543;SDS011;11950;51.230;4.012;2024-01-30T12:30:12;2.15;;;0.50;;
23543;SDS011;11950;51.230;4.012;2024-01-30T12:32:40;2.17;;;0.50;;
23543;SDS011;11950;51.230;4.012;2024-01-30T12:35:10;1.80;;;0.50;;
23543;SDS011;11950;51.230;4.012;2024-01-30T12:37:41;4.75;;;0.65;;
23543;SDS011;11950;51.230;4.012;2024-01-30T12:40:09;0.90;;;0.40;;
23543;SDS011;11950;51.230;4.012;2024-01-30T12:42:38;3.25;;;0.40;;
23543;SDS011;11950;51.230;4.012;2024-01-30T12:45:05;2.67;;;0.40;;
23543;SDS011;11950;51.230;4.012;2024-01-30T12:47:32;0.63;;;0.32;;
23543;SDS011;11950;51.230;4.012;2024-01-30T12:49:58;3.60;;;0.65;;
23543;SDS011;11950;51.230;4.012;2024-01-30T12:52:24;1.00;;;0.60;;
23543;SDS011;11950;51.230;4.012;2024-01-30T12:54:51;3.38;;;0.63;;
23543;SDS011;11950;51.230;4.012;2024-01-30T12:57:17;3.85;;;0.47;;
23543;SDS011;11950;51.230;4.012;2024-01-30T12:59:45;4.10;;;0.50;;
23543;SDS011;11950;51.230;4.012;2024-01-30T13:02:14;3.80;;;0.57;;
23543;SDS011;11950;51.230;4.012;2024-01-30T13:04:41;4.22;;;0.50;;
23543;SDS011;11950;51.230;4.012;2024-01-30T13:07:07;2.30;;;0.57;;
23543;SDS011;11950;51.230;4.012;2024-01-30T13:09:34;1.92;;;0.40;;
23543;SDS011;11950;51.230;4.012;2024-01-30T13:12:00;2.95;;;0.40;;
23543;SDS011;11950;51.230;4.012;2024-01-30T13:14:26;1.50;;;0.38;;
23543;SDS011;11950;51.230;4.012;2024-01-30T13:16:53;2.47;;;0.40;;
23543;SDS011;11950;51.230;4.012;2024-01-30T13:19:19;2.70;;;0.40;;
23543;SDS011;11950;51.230;4.012;2024-01-30T13:21:45;1.27;;;0.32;;
23543;SDS011;11950;51.230;4.012;2024-01-30T13:24:13;1.77;;;0.40;;
23543;SDS011;11950;51.230;4.012;2024-01-30T13:26:40;2.05;;;0.30;;
23543;SDS011;11950;51.230;4.012;2024-01-30T13:29:08;1.25;;;0.30;;
23543;SDS011;11950;51.230;4.012;2024-01-30T13:31:34;2.30;;;0.38;;
23543;SDS011;11950;51.230;4.012;2024-01-30T13:34:00;3.08;;;0.40;;
23543;SDS011;11950;51.230;4.012;2024-01-30T13:36:26;0.63;;;0.30;;
23543;SDS011;11950;51.230;4.012;2024-01-30T13:38:53;2.05;;;0.40;;
23543;SDS011;11950;51.230;4.012;2024-01-30T13:41:19;5.40;;;0.40;;
23543;SDS011;11950;51.230;4.012;2024-01-30T13:43:46;3.22;;;0.50;;
23543;SDS011;11950;51.230;4.012;2024-01-30T13:46:13;4.28;;;0.55;;
23543;SDS011;11950;51.230;4.012;2024-01-30T13:48:39;1.60;;;0.40;;
23543;SDS011;11950;51.230;4.012;2024-01-30T13:51:05;1.60;;;0.50;;
23543;SDS011;11950;51.230;4.012;2024-01-30T13:53:32;3.30;;;0.47;;
23543;SDS011;11950;51.230;4.012;2024-01-30T13:55:58;1.35;;;0.40;;
23543;SDS011;11950;51.230;4.012;2024-01-30T13:58:24;2.70;;;0.60;;
23543;SDS011;11950;51.230;4.012;2024-01-30T14:00:50;1.92;;;0.60;;
23543;SDS011;11950;51.230;4.012;2024-01-30T14:03:17;3.53;;;0.80;;
23543;SDS011;11950;51.230;4.012;2024-01-30T14:05:43;4.00;;;0.70;;
23543;SDS011;11950;51.230;4.012;2024-01-30T14:08:09;1.63;;;0.80;;
23543;SDS011;11950;51.230;4.012;2024-01-30T14:10:36;1.85;;;1.10;;
23543;SDS011;11950;51.230;4.012;2024-01-30T14:13:02;4.28;;;1.08;;
23543;SDS011;11950;51.230;4.012;2024-01-30T14:15:29;2.30;;;1.10;;
23543;SDS011;11950;51.230;4.012;2024-01-30T14:17:55;3.40;;;1.27;;
23543;SDS011;11950;51.230;4.012;2024-01-30T14:20:21;2.95;;;1.40;;
23543;SDS011;11950;51.230;4.012;2024-01-30T14:22:48;2.28;;;1.60;;
23543;SDS011;11950;51.230;4.012;2024-01-30T14:25:14;3.72;;;1.67;;
23543;SDS011;11950;51.230;4.012;2024-01-30T14:27:42;5.32;;;1.95;;
23543;SDS011;11950;51.230;4.012;2024-01-30T14:30:11;3.47;;;1.80;;
23543;SDS011;11950;51.230;4.012;2024-01-30T14:32:37;3.63;;;2.10;;
23543;SDS011;11950;51.230;4.012;2024-01-30T14:35:04;5.53;;;2.42;;
23543;SDS011;11950;51.230;4.012;2024-01-30T14:37:31;2.53;;;2.33;;
23543;SDS011;11950;51.230;4.012;2024-01-30T14:39:57;6.20;;;2.60;;
23543;SDS011;11950;51.230;4.012;2024-01-30T14:42:23;5.38;;;2.67;;
23543;SDS011;11950;51.230;4.012;2024-01-30T14:44:50;4.43;;;2.70;;